San Benito, California
Current Conditions -  °F | °C
As of 2:53 PM on Thursday 27 Nov 2014 (Local Time) from KSNS Reporting Station
Clear Clear  
Wind Chill: 21°   Ceiling: Unl
Heat Index: 21°   Visibility: 10mi
Dew Point:   Wind: 8mph
Humidity: 44%   Direction: 290°WNW
Pressure: 30.07"   Gusts: NA
Location:  36.4824°N, 120.948°W
Report Text: KSNS 272253Z 29007KT 10SM CLR 21/08 A3007 RMK AO2 SLP191 T02110083
Loading
Personal Weather Stations






























Interactive Weather Map New forecast layout! Learn more

10-Day Weather Forecast

Advertisements
Track Severe Weather on mobile